createdAt,value
2023-05-12T00:00:08.203Z,94150.00
2023-05-12T00:01:08.225Z,94146.00
2023-05-12T00:02:08.256Z,94148.00
2023-05-12T00:03:08.441Z,94148.00
2023-05-12T00:04:08.647Z,94146.00
2023-05-12T00:05:08.383Z,94144.00
2023-05-12T00:06:08.448Z,94140.00
2023-05-12T00:07:08.488Z,94144.00
2023-05-12T00:08:08.515Z,94142.00
2023-05-12T00:09:08.550Z,94142.00
2023-05-12T00:10:08.588Z,94140.00
2023-05-12T00:11:08.645Z,94142.00
2023-05-12T00:12:08.684Z,94142.00
2023-05-12T00:13:08.715Z,94144.00
2023-05-12T00:14:08.770Z,94142.00
2023-05-12T00:15:08.805Z,94138.00
2023-05-12T00:16:08.909Z,94142.00
2023-05-12T00:17:08.895Z,94140.00
2023-05-12T00:18:08.928Z,94140.00
2023-05-12T00:19:09.046Z,94140.00
2023-05-12T00:20:09.026Z,94140.00
2023-05-12T00:21:09.075Z,94140.00
2023-05-12T00:22:09.096Z,94138.00
2023-05-12T00:23:09.201Z,94136.00
2023-05-12T00:24:09.195Z,94138.00
2023-05-12T00:25:09.236Z,94136.00
2023-05-12T00:26:09.297Z,94138.00
2023-05-12T00:27:09.313Z,94140.00
2023-05-12T00:28:09.366Z,94142.00
2023-05-12T00:29:09.414Z,94140.00
2023-05-12T00:30:09.459Z,94144.00
2023-05-12T00:31:09.586Z,94146.00
2023-05-12T00:32:09.545Z,94146.00
2023-05-12T00:33:09.605Z,94142.00
2023-05-12T00:34:09.669Z,94144.00
2023-05-12T00:35:09.705Z,94148.00
2023-05-12T00:36:09.755Z,94144.00
2023-05-12T00:37:09.793Z,94144.00
2023-05-12T00:38:09.841Z,94144.00
2023-05-12T00:39:09.879Z,94144.00
2023-05-12T00:40:09.910Z,94144.00
2023-05-12T00:41:09.991Z,94142.00
2023-05-12T00:42:10.036Z,94142.00
2023-05-12T00:43:10.056Z,94140.00
2023-05-12T00:44:10.122Z,94142.00
2023-05-12T00:45:10.172Z,94142.00
2023-05-12T00:46:10.255Z,94140.00
2023-05-12T00:47:10.264Z,94142.00
2023-05-12T00:48:10.368Z,94140.00
2023-05-12T00:49:10.374Z,94142.00
2023-05-12T00:50:10.383Z,94140.00
2023-05-12T00:51:10.606Z,94144.00
2023-05-12T00:52:10.493Z,94144.00
2023-05-12T00:53:10.521Z,94136.00
2023-05-12T00:54:10.588Z,94140.00
2023-05-12T00:55:10.649Z,94136.00
2023-05-12T00:56:10.698Z,94138.00
2023-05-12T00:57:10.737Z,94136.00
2023-05-12T00:58:10.768Z,94136.00
2023-05-12T00:59:10.809Z,94134.00
2023-05-12T01:00:10.880Z,94132.00
2023-05-12T01:01:10.923Z,94134.00
2023-05-12T01:02:10.993Z,94132.00
2023-05-12T01:03:11.070Z,94132.00
2023-05-12T01:04:11.051Z,94132.00
2023-05-12T01:05:11.114Z,94125.00
2023-05-12T01:06:11.150Z,94123.00
2023-05-12T01:07:12.095Z,94123.00
2023-05-12T01:08:11.244Z,94123.00
2023-05-12T01:09:11.291Z,94123.00
2023-05-12T01:10:11.324Z,94123.00
2023-05-12T01:11:11.389Z,94123.00
2023-05-12T01:12:11.440Z,94119.00
2023-05-12T01:13:11.469Z,94123.00
2023-05-12T01:14:11.525Z,94123.00
2023-05-12T01:15:11.549Z,94121.00
2023-05-12T01:16:11.620Z,94121.00
2023-05-12T01:17:11.819Z,94119.00
2023-05-12T01:18:11.745Z,94119.00
2023-05-12T01:19:11.818Z,94117.00
2023-05-12T01:20:11.818Z,94119.00
2023-05-12T01:21:11.879Z,94119.00
2023-05-12T01:22:11.901Z,94121.00
2023-05-12T01:23:11.958Z,94121.00
2023-05-12T01:24:12.012Z,94121.00
2023-05-12T01:25:12.143Z,94121.00
2023-05-12T01:26:12.120Z,94119.00
2023-05-12T01:27:12.155Z,94117.00
2023-05-12T01:28:12.213Z,94115.00
2023-05-12T01:29:12.260Z,94115.00
2023-05-12T01:30:12.312Z,94109.00
2023-05-12T01:31:12.369Z,94113.00
2023-05-12T01:32:12.424Z,94109.00
2023-05-12T01:33:12.476Z,94109.00
2023-05-12T01:34:12.504Z,94105.00
2023-05-12T01:35:12.574Z,94107.00
2023-05-12T01:36:12.612Z,94105.00
2023-05-12T01:37:12.693Z,94107.00
2023-05-12T01:38:12.723Z,94105.00
2023-05-12T01:39:12.758Z,94103.00
2023-05-12T01:40:12.826Z,94105.00
2023-05-12T01:41:12.861Z,94107.00
2023-05-12T01:42:12.925Z,94107.00
2023-05-12T01:43:12.964Z,94109.00
2023-05-12T01:44:13.025Z,94113.00
2023-05-12T01:45:13.082Z,94115.00
2023-05-12T01:46:13.169Z,94115.00
2023-05-12T01:47:13.191Z,94115.00
2023-05-12T01:48:13.241Z,94119.00
2023-05-12T01:49:13.276Z,94119.00
2023-05-12T01:50:13.327Z,94117.00
2023-05-12T01:51:13.355Z,94119.00
2023-05-12T01:52:13.417Z,94119.00
2023-05-12T01:53:13.498Z,94121.00
2023-05-12T01:54:13.507Z,94121.00
2023-05-12T01:55:13.545Z,94115.00
2023-05-12T01:56:13.626Z,94121.00
2023-05-12T01:57:13.677Z,94117.00
2023-05-12T01:58:13.708Z,94119.00
2023-05-12T01:59:13.817Z,94121.00
2023-05-12T02:00:13.819Z,94117.00
2023-05-12T02:01:13.905Z,94123.00
2023-05-12T02:02:14.041Z,94119.00
2023-05-12T02:03:14.112Z,94123.00
2023-05-12T02:04:14.154Z,94134.00
2023-05-12T02:05:14.088Z,94125.00
2023-05-12T02:06:14.114Z,94132.00
2023-05-12T02:07:14.166Z,94134.00
2023-05-12T02:08:14.216Z,94134.00
2023-05-12T02:09:14.277Z,94134.00
2023-05-12T02:10:14.322Z,94136.00
2023-05-12T02:11:14.421Z,94134.00
2023-05-12T02:12:14.413Z,94134.00
2023-05-12T02:13:14.454Z,94134.00
2023-05-12T02:14:14.515Z,94134.00
2023-05-12T02:15:14.574Z,94138.00
2023-05-12T02:16:14.704Z,94138.00
2023-05-12T02:17:14.693Z,94138.00
2023-05-12T02:18:14.737Z,94138.00
2023-05-12T02:19:14.776Z,94138.00
2023-05-12T02:20:14.839Z,94138.00
2023-05-12T02:21:14.874Z,94138.00
2023-05-12T02:22:14.945Z,94136.00
2023-05-12T02:23:15.003Z,94140.00
2023-05-12T02:24:15.086Z,94140.00
2023-05-12T02:25:15.074Z,94142.00
2023-05-12T02:26:15.127Z,94142.00
2023-05-12T02:27:15.183Z,94138.00
2023-05-12T02:28:15.258Z,94138.00
2023-05-12T02:29:15.271Z,94138.00
2023-05-12T02:30:15.326Z,94140.00
2023-05-12T02:31:15.397Z,94138.00
2023-05-12T02:32:15.453Z,94140.00
2023-05-12T02:33:15.499Z,94140.00
2023-05-12T02:34:15.536Z,94138.00
2023-05-12T02:35:15.584Z,94138.00
2023-05-12T02:36:15.685Z,94138.00
2023-05-12T02:37:15.680Z,94138.00
2023-05-12T02:38:15.755Z,94138.00
2023-05-12T02:39:15.797Z,94138.00
2023-05-12T02:40:15.846Z,94138.00
2023-05-12T02:41:15.888Z,94136.00
2023-05-12T02:42:15.943Z,94138.00
2023-05-12T02:43:16.016Z,94138.00
2023-05-12T02:44:16.073Z,94136.00
2023-05-12T02:45:16.114Z,94138.00
2023-05-12T02:46:16.231Z,94140.00
2023-05-12T02:47:16.220Z,94140.00
2023-05-12T02:48:16.262Z,94134.00
2023-05-12T02:49:16.316Z,94136.00
2023-05-12T02:50:16.364Z,94136.00
2023-05-12T02:51:16.421Z,94134.00
2023-05-12T02:52:16.486Z,94134.00
2023-05-12T02:53:16.552Z,94134.00
2023-05-12T02:54:16.659Z,94136.00
2023-05-12T02:55:16.645Z,94132.00
2023-05-12T02:56:16.704Z,94125.00
2023-05-12T02:57:16.731Z,94125.00
2023-05-12T02:58:16.808Z,94123.00
2023-05-12T02:59:16.848Z,94123.00
2023-05-12T03:00:16.929Z,94123.00
2023-05-12T03:01:16.994Z,94125.00
2023-05-12T03:02:17.035Z,94125.00
2023-05-12T03:03:17.086Z,94123.00
2023-05-12T03:04:17.115Z,94125.00
2023-05-12T03:05:17.170Z,94123.00
2023-05-12T03:06:17.219Z,94125.00
2023-05-12T03:07:17.274Z,94123.00
2023-05-12T03:08:17.313Z,94123.00
2023-05-12T03:09:17.387Z,94121.00
2023-05-12T03:10:17.579Z,94123.00
2023-05-12T03:11:17.472Z,94121.00
2023-05-12T03:12:17.552Z,94123.00
2023-05-12T03:13:17.588Z,94123.00
2023-05-12T03:14:17.655Z,94125.00
2023-05-12T03:15:17.691Z,94121.00
2023-05-12T03:16:19.488Z,94123.00
2023-05-12T03:17:17.896Z,94121.00
2023-05-12T03:18:17.852Z,94121.00
2023-05-12T03:19:17.923Z,94123.00
2023-05-12T03:20:18.242Z,94123.00
2023-05-12T03:21:18.030Z,94125.00
2023-05-12T03:22:18.084Z,94123.00
2023-05-12T03:23:18.119Z,94121.00
2023-05-12T03:24:18.203Z,94123.00
2023-05-12T03:25:18.222Z,94119.00
2023-05-12T03:26:18.301Z,94119.00
2023-05-12T03:27:18.321Z,94121.00
2023-05-12T03:28:18.429Z,94119.00
2023-05-12T03:29:18.456Z,94121.00
2023-05-12T03:30:18.617Z,94123.00
2023-05-12T03:31:18.620Z,94123.00
2023-05-12T03:32:18.677Z,94121.00
2023-05-12T03:33:18.663Z,94125.00
2023-05-12T03:34:18.724Z,94125.00
2023-05-12T03:35:18.790Z,94132.00
2023-05-12T03:36:18.836Z,94132.00
2023-05-12T03:37:18.900Z,94132.00
2023-05-12T03:38:18.922Z,94132.00
2023-05-12T03:39:18.980Z,94132.00
2023-05-12T03:40:19.495Z,94132.00
2023-05-12T03:41:19.091Z,94125.00
2023-05-12T03:42:19.132Z,94121.00
2023-05-12T03:43:19.180Z,94125.00
2023-05-12T03:44:19.252Z,94123.00
2023-05-12T03:45:19.317Z,94125.00
2023-05-12T03:46:19.423Z,94121.00
2023-05-12T03:47:19.561Z,94123.00
2023-05-12T03:48:19.493Z,94121.00
2023-05-12T03:49:19.509Z,94119.00
2023-05-12T03:50:19.881Z,94117.00
2023-05-12T03:51:19.620Z,94119.00
2023-05-12T03:52:19.696Z,94119.00
2023-05-12T03:53:19.758Z,94121.00
2023-05-12T03:54:19.798Z,94119.00
2023-05-12T03:55:19.853Z,94121.00
2023-05-12T03:56:19.888Z,94121.00
2023-05-12T03:57:19.952Z,94121.00
2023-05-12T03:58:19.986Z,94123.00
2023-05-12T03:59:20.059Z,94123.00
2023-05-12T04:00:20.281Z,94123.00
2023-05-12T04:01:20.155Z,94123.00
2023-05-12T04:02:20.227Z,94132.00
2023-05-12T04:03:20.359Z,94123.00
2023-05-12T04:04:20.323Z,94123.00
2023-05-12T04:05:20.424Z,94123.00
2023-05-12T04:06:20.421Z,94121.00
2023-05-12T04:07:20.498Z,94123.00
2023-05-12T04:08:20.527Z,94121.00
2023-05-12T04:09:20.659Z,94121.00
2023-05-12T04:10:20.790Z,94121.00
2023-05-12T04:11:20.682Z,94121.00
2023-05-12T04:12:20.748Z,94125.00
2023-05-12T04:13:20.811Z,94123.00
2023-05-12T04:14:28.995Z,94125.00
2023-05-12T04:15:21.851Z,94123.00
2023-05-12T04:16:20.865Z,94123.00
2023-05-12T04:17:20.891Z,94123.00
2023-05-12T04:18:20.852Z,94123.00
2023-05-12T04:19:20.817Z,94123.00
2023-05-12T04:20:21.032Z,94123.00
2023-05-12T04:21:20.827Z,94123.00
2023-05-12T04:22:21.507Z,94123.00
2023-05-12T04:23:20.808Z,94125.00
2023-05-12T04:24:20.826Z,94121.00
2023-05-12T04:25:20.859Z,94121.00
2023-05-12T04:26:20.922Z,94123.00
2023-05-12T04:27:20.981Z,94125.00
2023-05-12T04:28:21.038Z,94123.00
2023-05-12T04:29:21.117Z,94125.00
2023-05-12T04:30:21.259Z,94125.00
2023-05-12T04:31:21.257Z,94134.00
2023-05-12T04:32:21.271Z,94132.00
2023-05-12T04:33:21.318Z,94134.00
2023-05-12T04:34:21.355Z,94138.00
2023-05-12T04:35:21.408Z,94140.00
2023-05-12T04:36:21.473Z,94140.00
2023-05-12T04:37:21.530Z,94142.00
2023-05-12T04:38:21.580Z,94146.00
2023-05-12T04:39:21.622Z,94148.00
2023-05-12T04:40:21.926Z,94146.00
2023-05-12T04:41:21.728Z,94146.00
2023-05-12T04:42:21.792Z,94148.00
2023-05-12T04:44:21.846Z,94150.00
2023-05-12T04:45:22.135Z,94150.00
2023-05-12T04:46:21.878Z,94158.00
2023-05-12T04:47:21.834Z,94158.00
2023-05-12T04:48:21.812Z,94152.00
2023-05-12T04:49:21.821Z,94160.00
2023-05-12T04:50:21.805Z,94156.00
2023-05-12T04:51:21.809Z,94154.00
2023-05-12T04:52:22.616Z,94154.00
2023-05-12T04:53:21.767Z,94158.00
2023-05-12T04:54:21.770Z,94156.00
2023-05-12T04:55:21.910Z,94158.00
2023-05-12T04:56:21.753Z,94158.00
2023-05-12T04:57:21.781Z,94160.00
2023-05-12T04:58:21.744Z,94160.00
2023-05-12T04:59:21.751Z,94164.00
2023-05-12T05:00:21.736Z,94164.00
2023-05-12T05:01:21.783Z,94166.00
2023-05-12T05:02:21.725Z,94164.00
2023-05-12T05:03:21.814Z,94168.00
2023-05-12T05:04:21.699Z,94166.00
2023-05-12T05:05:21.916Z,94168.00
2023-05-12T05:06:21.696Z,94164.00
2023-05-12T05:07:21.771Z,94166.00
2023-05-12T05:08:21.798Z,94168.00
2023-05-12T05:09:21.866Z,94168.00
2023-05-12T05:10:21.902Z,94166.00
2023-05-12T05:11:21.969Z,94168.00
2023-05-12T05:12:22.045Z,94168.00
2023-05-12T05:13:22.081Z,94168.00
2023-05-12T05:14:22.133Z,94170.00
2023-05-12T05:15:22.239Z,94170.00
2023-05-12T05:16:22.320Z,94170.00
2023-05-12T05:17:22.338Z,94168.00
2023-05-12T05:18:24.160Z,94170.00
2023-05-12T05:19:30.587Z,94168.00
2023-05-12T05:20:27.917Z,94168.00
2023-05-12T05:21:23.345Z,94170.00
2023-05-12T05:22:22.349Z,94172.00
2023-05-12T05:23:22.372Z,94172.00
2023-05-12T05:24:22.320Z,94172.00
2023-05-12T05:25:22.324Z,94174.00
2023-05-12T05:26:22.305Z,94176.00
2023-05-12T05:27:22.722Z,94176.00
2023-05-12T05:28:22.298Z,94172.00
2023-05-12T05:29:22.291Z,94172.00
2023-05-12T05:30:22.310Z,94172.00
2023-05-12T05:31:22.306Z,94174.00
2023-05-12T05:32:22.307Z,94170.00
2023-05-12T05:33:22.273Z,94174.00
2023-05-12T05:34:22.315Z,94172.00
2023-05-12T05:35:22.387Z,94174.00
2023-05-12T05:36:22.250Z,94172.00
2023-05-12T05:37:22.719Z,94170.00
2023-05-12T05:38:22.233Z,94172.00
2023-05-12T05:39:22.219Z,94170.00
2023-05-12T05:40:22.218Z,94170.00
2023-05-12T05:41:22.213Z,94174.00
2023-05-12T05:42:22.208Z,94176.00
2023-05-12T05:43:22.198Z,94174.00
2023-05-12T05:44:22.190Z,94174.00
2023-05-12T05:45:22.241Z,94176.00
2023-05-12T05:46:22.246Z,94174.00
2023-05-12T05:47:22.245Z,94176.00
2023-05-12T05:48:22.167Z,94174.00
2023-05-12T05:49:22.192Z,94176.00
2023-05-12T05:50:22.151Z,94176.00
2023-05-12T05:51:22.141Z,94176.00
2023-05-12T05:52:22.206Z,94174.00
2023-05-12T05:53:22.703Z,94178.00
2023-05-12T05:54:22.112Z,94179.00
2023-05-12T05:55:22.272Z,94181.00
2023-05-12T05:56:22.103Z,94181.00
2023-05-12T05:57:22.128Z,94179.00
2023-05-12T05:58:22.089Z,94183.00
2023-05-12T05:59:22.077Z,94181.00
2023-05-12T06:00:22.072Z,94181.00
2023-05-12T06:01:22.080Z,94181.00
2023-05-12T06:02:22.118Z,94181.00
2023-05-12T06:03:22.117Z,94181.00
2023-05-12T06:04:22.141Z,94178.00
2023-05-12T06:05:22.320Z,94178.00
2023-05-12T06:06:22.237Z,94176.00
2023-05-12T06:07:22.353Z,94176.00
2023-05-12T06:08:22.341Z,94168.00
2023-05-12T06:09:22.410Z,94176.00
2023-05-12T06:10:23.293Z,94176.00
2023-05-12T06:11:22.531Z,94174.00
2023-05-12T06:12:22.574Z,94174.00
2023-05-12T06:13:22.621Z,94172.00
2023-05-12T06:14:22.696Z,94172.00
2023-05-12T06:15:23.065Z,94170.00
2023-05-12T06:16:22.896Z,94178.00
2023-05-12T06:17:22.876Z,94176.00
2023-05-12T06:18:23.008Z,94176.00
2023-05-12T06:19:22.993Z,94176.00
2023-05-12T06:20:23.034Z,94172.00
2023-05-12T06:21:23.075Z,94174.00
2023-05-12T06:22:23.212Z,94176.00
2023-05-12T06:23:23.227Z,94179.00
2023-05-12T06:24:23.231Z,94179.00
2023-05-12T06:25:23.304Z,94176.00
2023-05-12T06:26:23.302Z,94179.00
2023-05-12T06:27:23.747Z,94178.00
2023-05-12T06:28:23.420Z,94178.00
2023-05-12T06:29:23.466Z,94181.00
2023-05-12T06:30:23.533Z,94172.00
2023-05-12T06:31:23.640Z,94172.00
2023-05-12T06:32:23.824Z,94176.00
2023-05-12T06:33:23.752Z,94172.00
2023-05-12T06:34:23.633Z,94176.00
2023-05-12T06:35:23.655Z,94176.00
2023-05-12T06:36:23.719Z,94172.00
2023-05-12T06:37:24.253Z,94176.00
2023-05-12T06:38:23.797Z,94174.00
2023-05-12T06:39:23.865Z,94176.00
2023-05-12T06:40:23.948Z,94172.00
2023-05-12T06:41:23.931Z,94174.00
2023-05-12T06:42:23.944Z,94176.00
2023-05-12T06:43:24.012Z,94172.00
2023-05-12T06:44:24.015Z,94174.00
2023-05-12T06:45:24.062Z,94174.00
2023-05-12T06:46:24.109Z,94172.00
2023-05-12T06:47:24.144Z,94172.00
2023-05-12T06:48:24.251Z,94170.00
2023-05-12T06:49:24.157Z,94174.00
2023-05-12T06:50:24.178Z,94172.00
2023-05-12T06:51:24.204Z,94174.00
2023-05-12T06:52:24.238Z,94174.00
2023-05-12T06:53:25.678Z,94172.00
2023-05-12T06:54:24.271Z,94176.00
2023-05-12T06:55:24.314Z,94170.00
2023-05-12T06:56:24.306Z,94168.00
2023-05-12T06:57:24.345Z,94170.00
2023-05-12T06:58:24.760Z,94168.00
2023-05-12T06:59:24.382Z,94168.00
2023-05-12T07:00:24.390Z,94166.00
2023-05-12T07:01:24.428Z,94166.00
2023-05-12T07:02:24.454Z,94168.00
2023-05-12T07:03:24.469Z,94162.00
2023-05-12T07:04:25.589Z,94164.00
2023-05-12T07:05:24.755Z,94162.00
2023-05-12T07:06:24.483Z,94162.00
2023-05-12T07:07:24.506Z,94164.00
2023-05-12T07:08:24.524Z,94164.00
2023-05-12T07:09:24.570Z,94166.00
2023-05-12T07:10:24.548Z,94164.00
2023-05-12T07:11:24.567Z,94166.00
2023-05-12T07:12:24.625Z,94166.00
2023-05-12T07:13:24.623Z,94162.00
2023-05-12T07:14:24.660Z,94162.00
2023-05-12T07:15:24.657Z,94162.00
2023-05-12T07:16:24.714Z,94156.00
2023-05-12T07:17:24.842Z,94154.00
2023-05-12T07:18:24.790Z,94154.00
2023-05-12T07:19:24.754Z,94152.00
2023-05-12T07:20:24.725Z,94150.00
2023-05-12T07:21:24.751Z,94146.00
2023-05-12T07:22:24.756Z,94146.00
2023-05-12T07:23:24.788Z,94146.00
2023-05-12T07:24:24.810Z,94146.00
2023-05-12T07:25:24.966Z,94142.00
2023-05-12T07:26:24.836Z,94142.00
2023-05-12T07:27:24.837Z,94142.00
2023-05-12T07:28:25.759Z,94142.00
2023-05-12T07:29:24.868Z,94140.00
2023-05-12T07:30:24.883Z,94140.00
2023-05-12T07:31:24.948Z,94140.00
2023-05-12T07:32:24.955Z,94142.00
2023-05-12T07:33:25.326Z,94142.00
2023-05-12T07:34:24.967Z,94140.00
2023-05-12T07:35:24.973Z,94138.00
2023-05-12T07:36:24.981Z,94138.00
2023-05-12T07:37:25.007Z,94140.00
2023-05-12T07:38:25.032Z,94134.00
2023-05-12T07:39:25.070Z,94132.00
2023-05-12T07:40:25.164Z,94125.00
2023-05-12T07:41:25.109Z,94123.00
2023-05-12T07:42:25.143Z,94134.00
2023-05-12T07:43:25.164Z,94136.00
2023-05-12T07:44:25.164Z,94134.00
2023-05-12T07:45:25.191Z,94132.00
2023-05-12T07:46:25.242Z,94132.00
2023-05-12T07:47:25.295Z,94132.00
2023-05-12T07:48:25.256Z,94132.00
2023-05-12T07:49:25.347Z,94123.00
2023-05-12T07:50:25.336Z,94119.00
2023-05-12T07:51:25.304Z,94125.00
2023-05-12T07:52:25.361Z,94125.00
2023-05-12T07:53:25.784Z,94121.00
2023-05-12T07:54:25.425Z,94132.00
2023-05-12T07:55:25.416Z,94132.00
2023-05-12T07:56:25.436Z,94132.00
2023-05-12T07:57:25.428Z,94134.00
2023-05-12T07:58:25.802Z,94134.00
2023-05-12T07:59:25.462Z,94134.00
2023-05-12T08:00:25.466Z,94132.00
2023-05-12T08:01:25.467Z,94132.00
2023-05-12T08:02:25.525Z,94132.00
2023-05-12T08:03:26.003Z,94132.00
2023-05-12T08:04:25.585Z,94125.00
2023-05-12T08:05:25.531Z,94132.00
2023-05-12T08:06:25.537Z,94125.00
2023-05-12T08:07:25.518Z,94125.00
2023-05-12T08:08:25.495Z,94125.00
2023-05-12T08:09:25.502Z,94123.00
2023-05-12T08:10:25.501Z,94132.00
2023-05-12T08:11:25.520Z,94123.00
2023-05-12T08:12:25.501Z,94123.00
2023-05-12T08:13:25.511Z,94125.00
2023-05-12T08:14:25.540Z,94123.00
2023-05-12T08:15:25.495Z,94123.00
2023-05-12T08:16:25.539Z,94125.00
2023-05-12T08:17:27.030Z,94123.00
2023-05-12T08:18:25.546Z,94123.00
2023-05-12T08:19:25.532Z,94117.00
2023-05-12T08:20:25.498Z,94119.00
2023-05-12T08:21:25.652Z,94119.00
2023-05-12T08:22:25.484Z,94121.00
2023-05-12T08:23:25.504Z,94119.00
2023-05-12T08:24:25.463Z,94119.00
2023-05-12T08:25:25.506Z,94117.00
2023-05-12T08:26:25.451Z,94115.00
2023-05-12T08:27:25.460Z,94119.00
2023-05-12T08:28:25.445Z,94119.00
2023-05-12T08:29:25.432Z,94115.00
2023-05-12T08:30:25.415Z,94113.00
2023-05-12T08:31:25.463Z,94113.00
2023-05-12T08:32:25.423Z,94113.00
2023-05-12T08:33:25.413Z,94113.00
2023-05-12T08:34:25.389Z,94111.00
2023-05-12T08:35:25.383Z,94115.00
2023-05-12T08:36:25.367Z,94109.00
2023-05-12T08:37:25.405Z,94113.00
2023-05-12T08:38:25.360Z,94111.00
2023-05-12T08:39:25.396Z,94109.00
2023-05-12T08:40:25.349Z,94111.00
2023-05-12T08:41:25.326Z,94111.00
2023-05-12T08:42:25.353Z,94111.00
2023-05-12T08:43:25.804Z,94109.00
2023-05-12T08:44:25.333Z,94113.00
2023-05-12T08:45:25.287Z,94109.00
2023-05-12T08:46:25.295Z,94109.00
2023-05-12T08:47:25.399Z,94109.00
2023-05-12T08:48:25.289Z,94107.00
2023-05-12T08:49:25.276Z,94109.00
2023-05-12T08:50:25.263Z,94107.00
2023-05-12T08:51:25.237Z,94109.00
2023-05-12T08:52:25.232Z,94111.00
2023-05-12T08:53:25.291Z,94109.00
2023-05-12T08:54:25.221Z,94109.00
2023-05-12T08:55:29.581Z,94105.00
2023-05-12T08:57:26.372Z,94105.00
2023-05-12T08:58:34.139Z,94105.00
2023-05-12T08:59:26.223Z,94109.00
2023-05-12T09:00:25.255Z,94105.00
2023-05-12T09:01:25.176Z,94107.00
2023-05-12T09:02:25.255Z,94105.00
2023-05-12T09:03:25.411Z,94107.00
2023-05-12T09:04:25.172Z,94111.00
2023-05-12T09:05:25.145Z,94105.00
2023-05-12T09:06:25.129Z,94105.00
2023-05-12T09:07:25.140Z,94103.00
2023-05-12T09:08:25.125Z,94107.00
2023-05-12T09:09:25.120Z,94107.00
2023-05-12T09:11:25.089Z,94105.00
2023-05-12T09:12:25.094Z,94107.00
2023-05-12T09:13:25.309Z,94101.00
2023-05-12T09:14:25.079Z,94105.00
2023-05-12T09:15:25.054Z,94103.00
2023-05-12T09:16:25.124Z,94107.00
2023-05-12T09:17:25.103Z,94107.00
2023-05-12T09:18:25.414Z,94103.00
2023-05-12T09:19:25.048Z,94105.00
2023-05-12T09:20:31.528Z,94103.00
2023-05-12T09:21:26.043Z,94101.00
2023-05-12T09:22:25.013Z,94105.00
2023-05-12T09:23:25.321Z,94103.00
2023-05-12T09:24:25.009Z,94103.00
2023-05-12T09:25:25.031Z,94103.00
2023-05-12T09:26:25.022Z,94105.00
2023-05-12T09:27:25.006Z,94101.00
2023-05-12T09:28:24.973Z,94099.00
2023-05-12T09:29:31.658Z,94103.00
2023-05-12T09:30:25.978Z,94107.00
2023-05-12T09:31:25.001Z,94103.00
2023-05-12T09:32:25.018Z,94103.00
2023-05-12T09:33:25.019Z,94105.00
2023-05-12T09:34:24.970Z,94105.00
2023-05-12T09:35:24.931Z,94103.00
2023-05-12T09:36:24.937Z,94101.00
2023-05-12T09:37:24.968Z,94105.00
2023-05-12T09:38:24.894Z,94107.00
2023-05-12T09:39:25.314Z,94101.00
2023-05-12T09:40:24.926Z,94097.00
2023-05-12T09:41:25.151Z,94095.00
2023-05-12T09:42:24.921Z,94099.00
2023-05-12T09:43:24.898Z,94095.00
2023-05-12T09:44:24.901Z,94095.00
2023-05-12T09:45:24.885Z,94095.00
2023-05-12T09:46:24.948Z,94095.00
2023-05-12T09:47:24.864Z,94109.00
2023-05-12T09:48:27.384Z,94103.00
2023-05-12T09:49:25.305Z,94097.00
2023-05-12T09:50:25.098Z,94103.00
2023-05-12T09:51:24.820Z,94107.00
2023-05-12T09:52:24.809Z,94099.00
2023-05-12T09:53:24.804Z,94099.00
2023-05-12T09:54:24.844Z,94103.00
2023-05-12T09:55:24.774Z,94095.00
2023-05-12T09:56:24.774Z,94093.00
2023-05-12T09:57:24.796Z,94093.00
2023-05-12T09:58:24.757Z,94089.00
2023-05-12T09:59:24.763Z,94091.00
2023-05-12T10:00:38.611Z,94095.00
2023-05-12T10:01:25.843Z,94089.00
2023-05-12T10:02:24.753Z,94089.00
2023-05-12T10:03:24.726Z,94087.00
2023-05-12T10:04:24.733Z,94091.00
2023-05-12T10:05:24.718Z,94087.00
2023-05-12T10:06:24.712Z,94082.00
2023-05-12T10:07:24.684Z,94086.00
2023-05-12T10:08:24.689Z,94080.00
2023-05-12T10:09:24.833Z,94082.00
2023-05-12T10:10:24.711Z,94082.00
2023-05-12T10:11:24.787Z,94080.00
2023-05-12T10:12:24.824Z,94084.00
2023-05-12T10:13:24.936Z,94080.00
2023-05-12T10:14:25.341Z,94078.00
2023-05-12T10:15:25.033Z,94080.00
2023-05-12T10:16:25.071Z,94078.00
2023-05-12T10:17:25.130Z,94080.00
2023-05-12T10:18:25.161Z,94082.00
2023-05-12T10:19:25.079Z,94080.00
2023-05-12T10:20:25.071Z,94080.00
2023-05-12T10:21:25.073Z,94082.00
2023-05-12T10:22:25.081Z,94080.00
2023-05-12T10:23:25.106Z,94078.00
2023-05-12T10:24:25.358Z,94078.00
2023-05-12T10:25:25.152Z,94074.00
2023-05-12T10:26:25.210Z,94072.00
2023-05-12T10:27:25.277Z,94076.00
2023-05-12T10:28:25.378Z,94076.00
2023-05-12T10:29:25.426Z,94072.00
2023-05-12T10:30:25.499Z,94072.00
2023-05-12T10:31:25.595Z,94070.00
2023-05-12T10:32:25.579Z,94070.00
2023-05-12T10:33:26.353Z,94068.00
2023-05-12T10:34:25.602Z,94068.00
2023-05-12T10:35:25.610Z,94068.00
2023-05-12T10:36:25.629Z,94070.00
2023-05-12T10:37:25.644Z,94066.00
2023-05-12T10:38:25.642Z,94068.00
2023-05-12T10:39:25.681Z,94072.00
2023-05-12T10:40:25.691Z,94074.00
2023-05-12T10:41:25.707Z,94066.00
2023-05-12T10:42:25.955Z,94066.00
2023-05-12T10:43:25.752Z,94068.00
2023-05-12T10:44:25.764Z,94070.00
2023-05-12T10:45:25.865Z,94072.00
2023-05-12T10:46:25.840Z,94072.00
2023-05-12T10:47:25.869Z,94072.00
2023-05-12T10:48:25.789Z,94072.00
2023-05-12T10:49:25.980Z,94070.00
2023-05-12T10:50:25.837Z,94068.00
2023-05-12T10:51:25.834Z,94066.00
2023-05-12T10:52:25.829Z,94066.00
2023-05-12T10:53:30.470Z,94064.00
2023-05-12T10:54:26.875Z,94064.00
2023-05-12T10:55:26.154Z,94062.00
2023-05-12T10:56:26.063Z,94060.00
2023-05-12T10:57:26.042Z,94064.00
2023-05-12T10:58:26.115Z,94062.00
2023-05-12T10:59:26.148Z,94060.00
2023-05-12T11:00:26.666Z,94062.00
2023-05-12T11:01:26.490Z,94062.00
2023-05-12T11:02:27.634Z,94060.00
2023-05-12T11:03:27.063Z,94062.00
2023-05-12T11:04:26.027Z,94058.00
2023-05-12T11:05:26.416Z,94060.00
2023-05-12T11:06:25.898Z,94060.00
2023-05-12T11:07:26.519Z,94066.00
2023-05-12T11:08:26.702Z,94064.00
2023-05-12T11:09:26.936Z,94060.00
2023-05-12T11:10:26.590Z,94062.00
2023-05-12T11:11:25.955Z,94056.00
2023-05-12T11:12:25.977Z,94058.00
2023-05-12T11:13:25.989Z,94056.00
2023-05-12T11:14:26.368Z,94056.00
2023-05-12T11:15:26.094Z,94052.00
2023-05-12T11:16:26.154Z,94052.00
2023-05-12T11:17:26.345Z,94052.00
2023-05-12T11:18:26.217Z,94052.00
2023-05-12T11:19:26.888Z,94052.00
2023-05-12T11:20:28.137Z,94052.00
2023-05-12T11:21:26.318Z,94048.00
2023-05-12T11:22:26.290Z,94048.00
2023-05-12T11:23:26.306Z,94046.00
2023-05-12T11:24:26.377Z,94046.00
2023-05-12T11:25:26.329Z,94040.00
2023-05-12T11:26:26.264Z,94042.00
2023-05-12T11:27:26.268Z,94040.00
2023-05-12T11:28:26.272Z,94036.00
2023-05-12T11:29:26.273Z,94040.00
2023-05-12T11:30:26.253Z,94034.00
2023-05-12T11:31:26.304Z,94034.00
2023-05-12T11:32:26.355Z,94034.00
2023-05-12T11:33:26.251Z,94032.00
2023-05-12T11:34:26.221Z,94032.00
2023-05-12T11:35:26.214Z,94031.00
2023-05-12T11:36:26.215Z,94032.00
2023-05-12T11:37:26.223Z,94031.00
2023-05-12T11:38:26.210Z,94027.00
2023-05-12T11:39:26.188Z,94029.00
2023-05-12T11:40:26.178Z,94031.00
2023-05-12T11:41:26.167Z,94031.00
2023-05-12T11:42:26.158Z,94031.00
2023-05-12T11:43:26.152Z,94031.00
2023-05-12T11:44:26.181Z,94029.00
2023-05-12T11:45:26.127Z,94029.00
2023-05-12T11:46:26.230Z,94025.00
2023-05-12T11:47:26.321Z,94027.00